sensor_id;sensor_type;location;lat;lon;timestamp;P1;durP1;ratioP1;P2;durP2;ratioP2
8104;SDS011;4095;48.942;9.104;2022-11-20T00:01:13;17.37;;;12.67;;
8104;SDS011;4095;48.942;9.104;2022-11-20T00:03:40;15.73;;;11.67;;
8104;SDS011;4095;48.942;9.104;2022-11-20T00:06:09;16.53;;;12.80;;
8104;SDS011;4095;48.942;9.104;2022-11-20T00:08:36;16.43;;;11.97;;
8104;SDS011;4095;48.942;9.104;2022-11-20T00:11:06;16.83;;;12.70;;
8104;SDS011;4095;48.942;9.104;2022-11-20T00:13:33;19.80;;;13.57;;
8104;SDS011;4095;48.942;9.104;2022-11-20T00:16:00;18.57;;;13.80;;
8104;SDS011;4095;48.942;9.104;2022-11-20T00:18:27;20.40;;;13.70;;
8104;SDS011;4095;48.942;9.104;2022-11-20T00:20:59;18.90;;;14.00;;
8104;SDS011;4095;48.942;9.104;2022-11-20T00:23:29;16.73;;;13.03;;
8104;SDS011;4095;48.942;9.104;2022-11-20T00:25:55;22.73;;;14.20;;
8104;SDS011;4095;48.942;9.104;2022-11-20T00:28:21;19.53;;;14.07;;
8104;SDS011;4095;48.942;9.104;2022-11-20T00:30:46;18.87;;;13.13;;
8104;SDS011;4095;48.942;9.104;2022-11-20T00:33:12;19.30;;;13.00;;
8104;SDS011;4095;48.942;9.104;2022-11-20T00:35:37;19.30;;;13.40;;
8104;SDS011;4095;48.942;9.104;2022-11-20T00:38:03;19.83;;;13.93;;
8104;SDS011;4095;48.942;9.104;2022-11-20T00:40:29;16.93;;;12.90;;
8104;SDS011;4095;48.942;9.104;2022-11-20T00:42:54;20.20;;;15.50;;
8104;SDS011;4095;48.942;9.104;2022-11-20T00:45:20;18.10;;;13.27;;
8104;SDS011;4095;48.942;9.104;2022-11-20T00:47:45;21.97;;;14.63;;
8104;SDS011;4095;48.942;9.104;2022-11-20T00:50:11;20.13;;;14.77;;
8104;SDS011;4095;48.942;9.104;2022-11-20T00:52:37;21.47;;;15.47;;
8104;SDS011;4095;48.942;9.104;2022-11-20T00:55:02;20.43;;;14.77;;
8104;SDS011;4095;48.942;9.104;2022-11-20T00:57:29;24.97;;;14.90;;
8104;SDS011;4095;48.942;9.104;2022-11-20T00:59:54;22.80;;;15.87;;
8104;SDS011;4095;48.942;9.104;2022-11-20T01:02:20;21.80;;;15.33;;
8104;SDS011;4095;48.942;9.104;2022-11-20T01:04:46;20.40;;;13.63;;
8104;SDS011;4095;48.942;9.104;2022-11-20T01:07:11;21.60;;;14.43;;
8104;SDS011;4095;48.942;9.104;2022-11-20T01:09:37;21.90;;;14.47;;
8104;SDS011;4095;48.942;9.104;2022-11-20T01:12:03;23.93;;;15.97;;
8104;SDS011;4095;48.942;9.104;2022-11-20T01:14:28;25.60;;;16.50;;
8104;SDS011;4095;48.942;9.104;2022-11-20T01:16:54;25.43;;;16.07;;
8104;SDS011;4095;48.942;9.104;2022-11-20T01:19:20;20.73;;;15.20;;
8104;SDS011;4095;48.942;9.104;2022-11-20T01:21:48;24.43;;;15.70;;
8104;SDS011;4095;48.942;9.104;2022-11-20T01:24:16;22.83;;;15.50;;
8104;SDS011;4095;48.942;9.104;2022-11-20T01:26:44;23.83;;;15.50;;
8104;SDS011;4095;48.942;9.104;2022-11-20T01:29:16;23.30;;;16.97;;
8104;SDS011;4095;48.942;9.104;2022-11-20T01:31:44;25.53;;;16.10;;
8104;SDS011;4095;48.942;9.104;2022-11-20T01:34:11;23.53;;;15.93;;
8104;SDS011;4095;48.942;9.104;2022-11-20T01:36:39;24.33;;;16.37;;
8104;SDS011;4095;48.942;9.104;2022-11-20T01:39:07;24.00;;;16.33;;
8104;SDS011;4095;48.942;9.104;2022-11-20T01:41:41;24.73;;;16.43;;
8104;SDS011;4095;48.942;9.104;2022-11-20T01:44:46;22.13;;;16.30;;
8104;SDS011;4095;48.942;9.104;2022-11-20T01:47:13;25.03;;;16.70;;
8104;SDS011;4095;48.942;9.104;2022-11-20T01:49:55;23.57;;;16.53;;
8104;SDS011;4095;48.942;9.104;2022-11-20T01:52:50;23.07;;;16.30;;
8104;SDS011;4095;48.942;9.104;2022-11-20T01:55:27;23.47;;;15.63;;
8104;SDS011;4095;48.942;9.104;2022-11-20T01:57:57;21.40;;;16.03;;
8104;SDS011;4095;48.942;9.104;2022-11-20T02:00:23;20.93;;;15.33;;
8104;SDS011;4095;48.942;9.104;2022-11-20T02:02:59;21.20;;;15.10;;
8104;SDS011;4095;48.942;9.104;2022-11-20T02:05:32;20.27;;;14.50;;
8104;SDS011;4095;48.942;9.104;2022-11-20T02:08:15;20.53;;;15.00;;
8104;SDS011;4095;48.942;9.104;2022-11-20T02:10:42;18.60;;;14.50;;
8104;SDS011;4095;48.942;9.104;2022-11-20T02:13:08;19.43;;;15.07;;
8104;SDS011;4095;48.942;9.104;2022-11-20T02:15:52;19.67;;;14.73;;
8104;SDS011;4095;48.942;9.104;2022-11-20T02:18:18;22.90;;;15.40;;
8104;SDS011;4095;48.942;9.104;2022-11-20T02:20:46;20.87;;;15.03;;
8104;SDS011;4095;48.942;9.104;2022-11-20T02:23:33;17.93;;;14.30;;
8104;SDS011;4095;48.942;9.104;2022-11-20T02:26:09;19.17;;;15.07;;
8104;SDS011;4095;48.942;9.104;2022-11-20T02:28:37;18.87;;;14.40;;
8104;SDS011;4095;48.942;9.104;2022-11-20T02:31:03;17.27;;;14.27;;
8104;SDS011;4095;48.942;9.104;2022-11-20T02:33:29;19.03;;;14.43;;
8104;SDS011;4095;48.942;9.104;2022-11-20T02:35:54;18.83;;;13.90;;
8104;SDS011;4095;48.942;9.104;2022-11-20T02:38:20;17.03;;;14.10;;
8104;SDS011;4095;48.942;9.104;2022-11-20T02:40:46;18.50;;;14.20;;
8104;SDS011;4095;48.942;9.104;2022-11-20T02:43:11;16.53;;;13.90;;
8104;SDS011;4095;48.942;9.104;2022-11-20T02:45:37;15.63;;;13.40;;
8104;SDS011;4095;48.942;9.104;2022-11-20T02:48:03;15.10;;;12.27;;
8104;SDS011;4095;48.942;9.104;2022-11-20T02:50:31;16.37;;;13.23;;
8104;SDS011;4095;48.942;9.104;2022-11-20T02:52:56;17.47;;;13.77;;
8104;SDS011;4095;48.942;9.104;2022-11-20T02:55:22;17.33;;;13.67;;
8104;SDS011;4095;48.942;9.104;2022-11-20T02:57:47;17.60;;;14.10;;
8104;SDS011;4095;48.942;9.104;2022-11-20T03:00:13;16.93;;;14.13;;
8104;SDS011;4095;48.942;9.104;2022-11-20T03:02:39;18.53;;;14.30;;
8104;SDS011;4095;48.942;9.104;2022-11-20T03:05:05;20.00;;;15.03;;
8104;SDS011;4095;48.942;9.104;2022-11-20T03:07:30;22.23;;;15.63;;
8104;SDS011;4095;48.942;9.104;2022-11-20T03:09:56;21.33;;;15.60;;
8104;SDS011;4095;48.942;9.104;2022-11-20T03:12:21;21.13;;;15.87;;
8104;SDS011;4095;48.942;9.104;2022-11-20T03:14:47;21.03;;;15.00;;
8104;SDS011;4095;48.942;9.104;2022-11-20T03:17:13;20.67;;;15.00;;
8104;SDS011;4095;48.942;9.104;2022-11-20T03:19:38;18.23;;;14.17;;
8104;SDS011;4095;48.942;9.104;2022-11-20T03:22:04;19.03;;;14.30;;
8104;SDS011;4095;48.942;9.104;2022-11-20T03:24:29;19.73;;;14.53;;
8104;SDS011;4095;48.942;9.104;2022-11-20T03:26:55;18.20;;;14.20;;
8104;SDS011;4095;48.942;9.104;2022-11-20T03:29:21;18.30;;;14.37;;
8104;SDS011;4095;48.942;9.104;2022-11-20T03:31:46;18.67;;;14.60;;
8104;SDS011;4095;48.942;9.104;2022-11-20T03:34:12;17.50;;;14.33;;
8104;SDS011;4095;48.942;9.104;2022-11-20T03:36:38;19.30;;;14.73;;
8104;SDS011;4095;48.942;9.104;2022-11-20T03:39:05;18.53;;;14.27;;
8104;SDS011;4095;48.942;9.104;2022-11-20T03:41:34;17.87;;;12.17;;
8104;SDS011;4095;48.942;9.104;2022-11-20T03:44:02;11.53;;;9.07;;
8104;SDS011;4095;48.942;9.104;2022-11-20T03:46:29;9.37;;;8.00;;
8104;SDS011;4095;48.942;9.104;2022-11-20T03:48:55;8.70;;;6.30;;
8104;SDS011;4095;48.942;9.104;2022-11-20T03:51:22;7.90;;;5.60;;
8104;SDS011;4095;48.942;9.104;2022-11-20T03:53:50;5.50;;;4.90;;
8104;SDS011;4095;48.942;9.104;2022-11-20T03:56:18;6.33;;;4.93;;
8104;SDS011;4095;48.942;9.104;2022-11-20T03:58:46;4.90;;;4.50;;
8104;SDS011;4095;48.942;9.104;2022-11-20T04:01:13;5.10;;;4.70;;
8104;SDS011;4095;48.942;9.104;2022-11-20T04:03:39;5.03;;;4.50;;
8104;SDS011;4095;48.942;9.104;2022-11-20T04:06:07;6.27;;;4.70;;
8104;SDS011;4095;48.942;9.104;2022-11-20T04:08:37;6.53;;;5.07;;
8104;SDS011;4095;48.942;9.104;2022-11-20T04:13:39;4.70;;;4.30;;
8104;SDS011;4095;48.942;9.104;2022-11-20T04:16:06;5.50;;;5.00;;
8104;SDS011;4095;48.942;9.104;2022-11-20T04:18:33;5.87;;;4.37;;
8104;SDS011;4095;48.942;9.104;2022-11-20T04:20:59;5.00;;;4.50;;
8104;SDS011;4095;48.942;9.104;2022-11-20T04:23:25;5.87;;;4.40;;
8104;SDS011;4095;48.942;9.104;2022-11-20T04:25:51;4.73;;;4.33;;
8104;SDS011;4095;48.942;9.104;2022-11-20T04:28:17;4.80;;;4.30;;
8104;SDS011;4095;48.942;9.104;2022-11-20T04:30:42;6.30;;;4.23;;
8104;SDS011;4095;48.942;9.104;2022-11-20T04:33:08;5.00;;;4.60;;
8104;SDS011;4095;48.942;9.104;2022-11-20T04:35:34;5.10;;;4.30;;
8104;SDS011;4095;48.942;9.104;2022-11-20T04:38:00;5.27;;;4.30;;
8104;SDS011;4095;48.942;9.104;2022-11-20T04:40:27;5.50;;;4.43;;
8104;SDS011;4095;48.942;9.104;2022-11-20T04:42:53;5.40;;;4.33;;
8104;SDS011;4095;48.942;9.104;2022-11-20T04:45:20;6.27;;;4.30;;
8104;SDS011;4095;48.942;9.104;2022-11-20T04:47:47;6.83;;;4.80;;
8104;SDS011;4095;48.942;9.104;2022-11-20T04:50:13;4.37;;;3.97;;
8104;SDS011;4095;48.942;9.104;2022-11-20T04:52:38;7.13;;;4.90;;
8104;SDS011;4095;48.942;9.104;2022-11-20T04:55:04;6.20;;;4.17;;
8104;SDS011;4095;48.942;9.104;2022-11-20T04:57:30;5.27;;;4.53;;
8104;SDS011;4095;48.942;9.104;2022-11-20T04:59:56;5.07;;;4.57;;
8104;SDS011;4095;48.942;9.104;2022-11-20T05:02:21;4.93;;;4.53;;
8104;SDS011;4095;48.942;9.104;2022-11-20T05:04:48;10.73;;;5.13;;
8104;SDS011;4095;48.942;9.104;2022-11-20T05:07:13;5.47;;;4.53;;
8104;SDS011;4095;48.942;9.104;2022-11-20T05:09:39;5.43;;;4.90;;
8104;SDS011;4095;48.942;9.104;2022-11-20T05:12:06;5.53;;;4.97;;
8104;SDS011;4095;48.942;9.104;2022-11-20T05:14:32;6.17;;;4.63;;
8104;SDS011;4095;48.942;9.104;2022-11-20T05:16:58;5.37;;;4.87;;
8104;SDS011;4095;48.942;9.104;2022-11-20T05:19:24;5.13;;;4.37;;
8104;SDS011;4095;48.942;9.104;2022-11-20T05:21:50;6.03;;;4.07;;
8104;SDS011;4095;48.942;9.104;2022-11-20T05:24:15;5.53;;;4.10;;
8104;SDS011;4095;48.942;9.104;2022-11-20T05:26:41;5.00;;;4.60;;
8104;SDS011;4095;48.942;9.104;2022-11-20T05:29:09;6.00;;;3.97;;
8104;SDS011;4095;48.942;9.104;2022-11-20T05:31:36;4.80;;;4.17;;
8104;SDS011;4095;48.942;9.104;2022-11-20T05:34:03;4.47;;;3.67;;
8104;SDS011;4095;48.942;9.104;2022-11-20T05:36:29;4.37;;;3.80;;
8104;SDS011;4095;48.942;9.104;2022-11-20T05:38:55;4.60;;;4.20;;
8104;SDS011;4095;48.942;9.104;2022-11-20T05:41:20;4.33;;;3.93;;
8104;SDS011;4095;48.942;9.104;2022-11-20T05:43:46;4.93;;;4.00;;
8104;SDS011;4095;48.942;9.104;2022-11-20T05:46:14;4.47;;;4.07;;
8104;SDS011;4095;48.942;9.104;2022-11-20T05:48:41;5.67;;;4.27;;
8104;SDS011;4095;48.942;9.104;2022-11-20T05:51:10;5.33;;;4.33;;
8104;SDS011;4095;48.942;9.104;2022-11-20T05:53:37;4.10;;;3.63;;
8104;SDS011;4095;48.942;9.104;2022-11-20T05:56:04;4.53;;;4.03;;
8104;SDS011;4095;48.942;9.104;2022-11-20T05:58:35;4.10;;;3.70;;
8104;SDS011;4095;48.942;9.104;2022-11-20T06:03:34;4.60;;;4.10;;
8104;SDS011;4095;48.942;9.104;2022-11-20T06:06:00;4.60;;;4.20;;
8104;SDS011;4095;48.942;9.104;2022-11-20T06:08:26;5.53;;;5.03;;
8104;SDS011;4095;48.942;9.104;2022-11-20T06:10:52;6.97;;;5.43;;
8104;SDS011;4095;48.942;9.104;2022-11-20T06:13:18;6.00;;;4.77;;
8104;SDS011;4095;48.942;9.104;2022-11-20T06:15:52;5.90;;;5.30;;
8104;SDS011;4095;48.942;9.104;2022-11-20T06:18:18;6.70;;;5.90;;
8104;SDS011;4095;48.942;9.104;2022-11-20T06:20:45;6.43;;;5.70;;
8104;SDS011;4095;48.942;9.104;2022-11-20T06:23:11;5.80;;;5.27;;
8104;SDS011;4095;48.942;9.104;2022-11-20T06:25:41;5.93;;;4.23;;
8104;SDS011;4095;48.942;9.104;2022-11-20T06:28:07;6.27;;;4.50;;
8104;SDS011;4095;48.942;9.104;2022-11-20T06:30:34;4.63;;;4.23;;
8104;SDS011;4095;48.942;9.104;2022-11-20T06:33:00;7.33;;;4.57;;
8104;SDS011;4095;48.942;9.104;2022-11-20T06:35:25;4.83;;;4.40;;
8104;SDS011;4095;48.942;9.104;2022-11-20T06:37:51;4.83;;;4.33;;
8104;SDS011;4095;48.942;9.104;2022-11-20T06:40:16;5.77;;;4.20;;
8104;SDS011;4095;48.942;9.104;2022-11-20T06:42:42;4.30;;;3.90;;
8104;SDS011;4095;48.942;9.104;2022-11-20T06:45:08;5.40;;;4.40;;
8104;SDS011;4095;48.942;9.104;2022-11-20T06:47:34;5.53;;;4.13;;
8104;SDS011;4095;48.942;9.104;2022-11-20T06:50:00;5.00;;;4.50;;
8104;SDS011;4095;48.942;9.104;2022-11-20T06:52:25;4.63;;;4.17;;
8104;SDS011;4095;48.942;9.104;2022-11-20T06:54:51;5.43;;;4.63;;
8104;SDS011;4095;48.942;9.104;2022-11-20T06:57:16;5.63;;;4.67;;
8104;SDS011;4095;48.942;9.104;2022-11-20T06:59:42;4.60;;;4.20;;
8104;SDS011;4095;48.942;9.104;2022-11-20T07:02:11;4.97;;;4.13;;
8104;SDS011;4095;48.942;9.104;2022-11-20T07:04:37;5.47;;;4.37;;
8104;SDS011;4095;48.942;9.104;2022-11-20T07:07:03;4.87;;;4.20;;
8104;SDS011;4095;48.942;9.104;2022-11-20T07:09:28;6.47;;;5.47;;
8104;SDS011;4095;48.942;9.104;2022-11-20T07:11:54;5.83;;;5.23;;
8104;SDS011;4095;48.942;9.104;2022-11-20T07:14:20;6.13;;;5.57;;
8104;SDS011;4095;48.942;9.104;2022-11-20T07:16:45;6.73;;;5.97;;
8104;SDS011;4095;48.942;9.104;2022-11-20T07:19:11;6.67;;;6.07;;
8104;SDS011;4095;48.942;9.104;2022-11-20T07:21:36;6.13;;;5.10;;
8104;SDS011;4095;48.942;9.104;2022-11-20T07:24:02;4.90;;;4.43;;
8104;SDS011;4095;48.942;9.104;2022-11-20T07:26:28;6.83;;;4.93;;
8104;SDS011;4095;48.942;9.104;2022-11-20T07:28:53;4.93;;;4.33;;
8104;SDS011;4095;48.942;9.104;2022-11-20T07:31:19;8.53;;;6.83;;
8104;SDS011;4095;48.942;9.104;2022-11-20T07:33:45;11.83;;;9.97;;
8104;SDS011;4095;48.942;9.104;2022-11-20T07:36:11;8.53;;;7.20;;
8104;SDS011;4095;48.942;9.104;2022-11-20T07:38:37;8.53;;;7.03;;
8104;SDS011;4095;48.942;9.104;2022-11-20T07:41:03;7.17;;;6.13;;
8104;SDS011;4095;48.942;9.104;2022-11-20T07:43:29;6.57;;;4.43;;
8104;SDS011;4095;48.942;9.104;2022-11-20T07:45:55;4.50;;;4.10;;
8104;SDS011;4095;48.942;9.104;2022-11-20T07:48:21;4.40;;;4.00;;
8104;SDS011;4095;48.942;9.104;2022-11-20T07:50:47;4.37;;;3.90;;
8104;SDS011;4095;48.942;9.104;2022-11-20T07:53:13;4.53;;;3.90;;
8104;SDS011;4095;48.942;9.104;2022-11-20T07:55:38;5.13;;;3.87;;
8104;SDS011;4095;48.942;9.104;2022-11-20T07:58:04;5.10;;;3.47;;
8104;SDS011;4095;48.942;9.104;2022-11-20T08:00:30;3.50;;;3.20;;
8104;SDS011;4095;48.942;9.104;2022-11-20T08:02:56;3.53;;;3.23;;
8104;SDS011;4095;48.942;9.104;2022-11-20T08:05:21;3.50;;;3.13;;
8104;SDS011;4095;48.942;9.104;2022-11-20T08:07:47;5.47;;;3.17;;
8104;SDS011;4095;48.942;9.104;2022-11-20T08:10:14;3.77;;;3.47;;
8104;SDS011;4095;48.942;9.104;2022-11-20T08:12:48;3.87;;;3.57;;
8104;SDS011;4095;48.942;9.104;2022-11-20T08:15:34;4.93;;;3.23;;
8104;SDS011;4095;48.942;9.104;2022-11-20T08:18:05;3.83;;;3.53;;
8104;SDS011;4095;48.942;9.104;2022-11-20T08:20:32;4.10;;;3.70;;
8104;SDS011;4095;48.942;9.104;2022-11-20T08:22:59;3.80;;;3.50;;
8104;SDS011;4095;48.942;9.104;2022-11-20T08:25:26;4.47;;;3.47;;
8104;SDS011;4095;48.942;9.104;2022-11-20T08:27:53;3.67;;;3.33;;
8104;SDS011;4095;48.942;9.104;2022-11-20T08:30:19;2.93;;;2.40;;
8104;SDS011;4095;48.942;9.104;2022-11-20T08:32:44;2.83;;;1.97;;
8104;SDS011;4095;48.942;9.104;2022-11-20T08:35:10;3.47;;;2.30;;
8104;SDS011;4095;48.942;9.104;2022-11-20T08:37:35;2.63;;;2.40;;
8104;SDS011;4095;48.942;9.104;2022-11-20T08:40:03;2.20;;;2.00;;
8104;SDS011;4095;48.942;9.104;2022-11-20T08:42:29;2.70;;;2.10;;
8104;SDS011;4095;48.942;9.104;2022-11-20T08:44:55;2.23;;;2.03;;
8104;SDS011;4095;48.942;9.104;2022-11-20T08:47:20;2.27;;;2.00;;
8104;SDS011;4095;48.942;9.104;2022-11-20T08:49:46;2.50;;;2.10;;
8104;SDS011;4095;48.942;9.104;2022-11-20T08:52:11;2.97;;;2.23;;
8104;SDS011;4095;48.942;9.104;2022-11-20T08:54:37;2.30;;;2.10;;
8104;SDS011;4095;48.942;9.104;2022-11-20T08:57:03;3.47;;;2.30;;
8104;SDS011;4095;48.942;9.104;2022-11-20T08:59:28;2.63;;;2.13;;
8104;SDS011;4095;48.942;9.104;2022-11-20T09:01:55;3.63;;;2.67;;
8104;SDS011;4095;48.942;9.104;2022-11-20T09:04:21;3.50;;;2.80;;
8104;SDS011;4095;48.942;9.104;2022-11-20T09:06:47;2.87;;;2.53;;
8104;SDS011;4095;48.942;9.104;2022-11-20T09:09:15;2.60;;;2.40;;
8104;SDS011;4095;48.942;9.104;2022-11-20T09:11:42;3.17;;;2.03;;
8104;SDS011;4095;48.942;9.104;2022-11-20T09:14:07;1.87;;;1.77;;
8104;SDS011;4095;48.942;9.104;2022-11-20T09:16:33;2.63;;;1.80;;
8104;SDS011;4095;48.942;9.104;2022-11-20T09:18:59;2.37;;;2.03;;
8104;SDS011;4095;48.942;9.104;2022-11-20T09:21:24;2.30;;;1.73;;
8104;SDS011;4095;48.942;9.104;2022-11-20T09:23:50;1.90;;;1.70;;
8104;SDS011;4095;48.942;9.104;2022-11-20T09:26:15;1.60;;;1.50;;
8104;SDS011;4095;48.942;9.104;2022-11-20T09:28:41;2.00;;;1.80;;
8104;SDS011;4095;48.942;9.104;2022-11-20T09:31:07;1.70;;;1.60;;
8104;SDS011;4095;48.942;9.104;2022-11-20T09:33:36;3.20;;;2.07;;
8104;SDS011;4095;48.942;9.104;2022-11-20T09:36:02;2.50;;;1.97;;
8104;SDS011;4095;48.942;9.104;2022-11-20T09:38:28;2.17;;;1.77;;
8104;SDS011;4095;48.942;9.104;2022-11-20T09:41:02;2.33;;;2.00;;
8104;SDS011;4095;48.942;9.104;2022-11-20T09:49:13;2.70;;;2.50;;
8104;SDS011;4095;48.942;9.104;2022-11-20T09:51:46;4.77;;;2.90;;
8104;SDS011;4095;48.942;9.104;2022-11-20T09:54:18;2.80;;;2.60;;
8104;SDS011;4095;48.942;9.104;2022-11-20T09:56:56;3.70;;;3.00;;
8104;SDS011;4095;48.942;9.104;2022-11-20T09:59:45;4.53;;;3.30;;
8104;SDS011;4095;48.942;9.104;2022-11-20T10:08:21;4.27;;;3.50;;
8104;SDS011;4095;48.942;9.104;2022-11-20T10:10:52;3.83;;;3.33;;
8104;SDS011;4095;48.942;9.104;2022-11-20T10:16:08;3.70;;;3.40;;
8104;SDS011;4095;48.942;9.104;2022-11-20T10:19:07;4.23;;;3.80;;
8104;SDS011;4095;48.942;9.104;2022-11-20T10:24:39;4.43;;;3.93;;
8104;SDS011;4095;48.942;9.104;2022-11-20T10:29:59;4.20;;;2.90;;
8104;SDS011;4095;48.942;9.104;2022-11-20T10:32:33;3.37;;;3.00;;
8104;SDS011;4095;48.942;9.104;2022-11-20T10:37:30;3.00;;;2.73;;
8104;SDS011;4095;48.942;9.104;2022-11-20T10:42:37;3.37;;;3.07;;
8104;SDS011;4095;48.942;9.104;2022-11-20T10:45:22;3.00;;;2.57;;
8104;SDS011;4095;48.942;9.104;2022-11-20T10:47:53;3.20;;;2.90;;
8104;SDS011;4095;48.942;9.104;2022-11-20T10:50:21;3.27;;;2.90;;
8104;SDS011;4095;48.942;9.104;2022-11-20T11:01:05;3.20;;;2.90;;
8104;SDS011;4095;48.942;9.104;2022-11-20T11:03:42;3.57;;;3.00;;
8104;SDS011;4095;48.942;9.104;2022-11-20T11:08:58;5.00;;;3.53;;
8104;SDS011;4095;48.942;9.104;2022-11-20T11:11:30;5.07;;;3.40;;
8104;SDS011;4095;48.942;9.104;2022-11-20T11:16:56;4.63;;;3.60;;
8104;SDS011;4095;48.942;9.104;2022-11-20T11:19:22;4.80;;;4.10;;
8104;SDS011;4095;48.942;9.104;2022-11-20T11:21:49;7.20;;;4.10;;
8104;SDS011;4095;48.942;9.104;2022-11-20T11:24:24;6.37;;;4.07;;
8104;SDS011;4095;48.942;9.104;2022-11-20T11:27:00;5.30;;;4.23;;
8104;SDS011;4095;48.942;9.104;2022-11-20T11:29:35;3.00;;;2.60;;
8104;SDS011;4095;48.942;9.104;2022-11-20T11:32:10;4.77;;;2.80;;
8104;SDS011;4095;48.942;9.104;2022-11-20T11:34:38;6.90;;;3.00;;
8104;SDS011;4095;48.942;9.104;2022-11-20T11:37:04;3.87;;;2.10;;
8104;SDS011;4095;48.942;9.104;2022-11-20T11:39:38;4.17;;;2.17;;
8104;SDS011;4095;48.942;9.104;2022-11-20T11:42:07;3.93;;;2.20;;
8104;SDS011;4095;48.942;9.104;2022-11-20T11:44:45;3.27;;;2.13;;
8104;SDS011;4095;48.942;9.104;2022-11-20T11:47:44;3.03;;;1.77;;
8104;SDS011;4095;48.942;9.104;2022-11-20T11:55:09;3.53;;;1.67;;
8104;SDS011;4095;48.942;9.104;2022-11-20T12:00:45;2.90;;;1.70;;
8104;SDS011;4095;48.942;9.104;2022-11-20T12:03:27;3.30;;;1.73;;
8104;SDS011;4095;48.942;9.104;2022-11-20T12:06:06;5.40;;;2.03;;
8104;SDS011;4095;48.942;9.104;2022-11-20T12:13:47;3.80;;;2.10;;
8104;SDS011;4095;48.942;9.104;2022-11-20T12:16:19;2.70;;;1.80;;
8104;SDS011;4095;48.942;9.104;2022-11-20T12:18:46;4.67;;;2.20;;
8104;SDS011;4095;48.942;9.104;2022-11-20T12:34:47;2.57;;;1.80;;
8104;SDS011;4095;48.942;9.104;2022-11-20T12:39:50;3.20;;;1.90;;
8104;SDS011;4095;48.942;9.104;2022-11-20T13:02:01;3.87;;;1.60;;
8104;SDS011;4095;48.942;9.104;2022-11-20T13:07:07;2.47;;;1.57;;
8104;SDS011;4095;48.942;9.104;2022-11-20T13:09:39;4.33;;;1.63;;
8104;SDS011;4095;48.942;9.104;2022-11-20T13:12:11;4.47;;;1.73;;
8104;SDS011;4095;48.942;9.104;2022-11-20T13:14:45;3.67;;;2.00;;
8104;SDS011;4095;48.942;9.104;2022-11-20T13:17:27;2.17;;;1.80;;
8104;SDS011;4095;48.942;9.104;2022-11-20T13:20:04;6.03;;;2.67;;
8104;SDS011;4095;48.942;9.104;2022-11-20T13:22:48;4.73;;;1.87;;
8104;SDS011;4095;48.942;9.104;2022-11-20T13:25:27;3.23;;;1.70;;
8104;SDS011;4095;48.942;9.104;2022-11-20T13:27:54;3.37;;;1.50;;
8104;SDS011;4095;48.942;9.104;2022-11-20T13:30:22;4.70;;;1.73;;
8104;SDS011;4095;48.942;9.104;2022-11-20T13:32:53;3.20;;;1.67;;
8104;SDS011;4095;48.942;9.104;2022-11-20T13:35:35;3.20;;;1.73;;
8104;SDS011;4095;48.942;9.104;2022-11-20T13:38:09;4.60;;;2.20;;
8104;SDS011;4095;48.942;9.104;2022-11-20T13:43:46;4.20;;;2.30;;
8104;SDS011;4095;48.942;9.104;2022-11-20T13:46:13;3.20;;;1.93;;
8104;SDS011;4095;48.942;9.104;2022-11-20T13:48:41;3.40;;;2.03;;
8104;SDS011;4095;48.942;9.104;2022-11-20T13:57:30;4.00;;;1.70;;
8104;SDS011;4095;48.942;9.104;2022-11-20T14:02:35;5.43;;;2.13;;
8104;SDS011;4095;48.942;9.104;2022-11-20T14:05:01;4.03;;;1.70;;
8104;SDS011;4095;48.942;9.104;2022-11-20T14:07:35;5.17;;;2.53;;
8104;SDS011;4095;48.942;9.104;2022-11-20T14:10:03;3.50;;;1.60;;
8104;SDS011;4095;48.942;9.104;2022-11-20T14:12:30;3.50;;;1.50;;
8104;SDS011;4095;48.942;9.104;2022-11-20T14:14:57;3.93;;;1.47;;
8104;SDS011;4095;48.942;9.104;2022-11-20T14:17:31;2.43;;;1.60;;
8104;SDS011;4095;48.942;9.104;2022-11-20T14:19:59;4.00;;;1.40;;
8104;SDS011;4095;48.942;9.104;2022-11-20T14:22:30;2.13;;;1.57;;
8104;SDS011;4095;48.942;9.104;2022-11-20T14:27:38;2.60;;;1.20;;
8104;SDS011;4095;48.942;9.104;2022-11-20T14:30:06;1.43;;;1.00;;
8104;SDS011;4095;48.942;9.104;2022-11-20T14:32:39;2.20;;;1.27;;
8104;SDS011;4095;48.942;9.104;2022-11-20T14:35:08;4.47;;;1.67;;
8104;SDS011;4095;48.942;9.104;2022-11-20T14:37:37;3.83;;;1.40;;
8104;SDS011;4095;48.942;9.104;2022-11-20T14:40:05;3.97;;;2.40;;
8104;SDS011;4095;48.942;9.104;2022-11-20T14:42:51;3.73;;;2.00;;
8104;SDS011;4095;48.942;9.104;2022-11-20T14:45:17;4.50;;;1.30;;
8104;SDS011;4095;48.942;9.104;2022-11-20T14:47:44;4.33;;;1.80;;
8104;SDS011;4095;48.942;9.104;2022-11-20T14:50:19;2.23;;;1.53;;
8104;SDS011;4095;48.942;9.104;2022-11-20T14:52:55;1.50;;;1.10;;
8104;SDS011;4095;48.942;9.104;2022-11-20T14:55:36;3.93;;;1.70;;
8104;SDS011;4095;48.942;9.104;2022-11-20T14:58:04;3.43;;;1.40;;
8104;SDS011;4095;48.942;9.104;2022-11-20T15:00:58;2.33;;;2.10;;
8104;SDS011;4095;48.942;9.104;2022-11-20T15:03:36;2.47;;;1.50;;
8104;SDS011;4095;48.942;9.104;2022-11-20T15:06:07;3.20;;;1.87;;
8104;SDS011;4095;48.942;9.104;2022-11-20T15:08:36;4.40;;;2.40;;
8104;SDS011;4095;48.942;9.104;2022-11-20T15:11:01;1.80;;;1.70;;
8104;SDS011;4095;48.942;9.104;2022-11-20T15:13:31;2.10;;;1.63;;
8104;SDS011;4095;48.942;9.104;2022-11-20T15:16:00;2.03;;;1.50;;
8104;SDS011;4095;48.942;9.104;2022-11-20T15:18:28;3.57;;;2.10;;
8104;SDS011;4095;48.942;9.104;2022-11-20T15:20:56;3.50;;;1.80;;
8104;SDS011;4095;48.942;9.104;2022-11-20T15:23:25;4.27;;;2.77;;
8104;SDS011;4095;48.942;9.104;2022-11-20T15:25:52;4.50;;;2.80;;
8104;SDS011;4095;48.942;9.104;2022-11-20T15:28:19;3.70;;;1.80;;
8104;SDS011;4095;48.942;9.104;2022-11-20T15:30:45;3.87;;;2.57;;
8104;SDS011;4095;48.942;9.104;2022-11-20T15:33:12;3.53;;;2.50;;
8104;SDS011;4095;48.942;9.104;2022-11-20T15:35:38;3.83;;;2.23;;
8104;SDS011;4095;48.942;9.104;2022-11-20T15:38:03;4.97;;;2.80;;
8104;SDS011;4095;48.942;9.104;2022-11-20T15:40:29;5.10;;;2.83;;
8104;SDS011;4095;48.942;9.104;2022-11-20T15:42:55;5.37;;;3.10;;
8104;SDS011;4095;48.942;9.104;2022-11-20T15:45:43;2.83;;;1.77;;
8104;SDS011;4095;48.942;9.104;2022-11-20T15:48:12;4.10;;;1.70;;
8104;SDS011;4095;48.942;9.104;2022-11-20T15:53:17;4.00;;;2.33;;
8104;SDS011;4095;48.942;9.104;2022-11-20T15:55:43;4.77;;;2.20;;
8104;SDS011;4095;48.942;9.104;2022-11-20T15:58:09;2.70;;;2.30;;
8104;SDS011;4095;48.942;9.104;2022-11-20T16:00:34;4.93;;;2.17;;
8104;SDS011;4095;48.942;9.104;2022-11-20T16:03:01;3.87;;;2.50;;
8104;SDS011;4095;48.942;9.104;2022-11-20T16:05:30;3.73;;;2.50;;
8104;SDS011;4095;48.942;9.104;2022-11-20T16:07:56;5.23;;;2.13;;
8104;SDS011;4095;48.942;9.104;2022-11-20T16:10:22;4.60;;;2.30;;
8104;SDS011;4095;48.942;9.104;2022-11-20T16:12:48;5.37;;;2.57;;
8104;SDS011;4095;48.942;9.104;2022-11-20T16:15:32;5.67;;;2.77;;
8104;SDS011;4095;48.942;9.104;2022-11-20T16:18:11;2.90;;;2.10;;
8104;SDS011;4095;48.942;9.104;2022-11-20T16:20:38;5.40;;;2.50;;
8104;SDS011;4095;48.942;9.104;2022-11-20T16:23:05;4.13;;;2.40;;
8104;SDS011;4095;48.942;9.104;2022-11-20T16:25:31;3.20;;;2.47;;
8104;SDS011;4095;48.942;9.104;2022-11-20T16:27:57;4.57;;;2.70;;
8104;SDS011;4095;48.942;9.104;2022-11-20T16:30:23;6.23;;;2.47;;
8104;SDS011;4095;48.942;9.104;2022-11-20T16:32:49;5.10;;;2.63;;
8104;SDS011;4095;48.942;9.104;2022-11-20T16:35:14;3.00;;;2.50;;
8104;SDS011;4095;48.942;9.104;2022-11-20T16:37:40;3.80;;;3.17;;
8104;SDS011;4095;48.942;9.104;2022-11-20T16:40:07;5.70;;;3.43;;
8104;SDS011;4095;48.942;9.104;2022-11-20T16:42:33;4.90;;;3.00;;
8104;SDS011;4095;48.942;9.104;2022-11-20T16:45:00;5.03;;;2.80;;
8104;SDS011;4095;48.942;9.104;2022-11-20T16:47:25;5.77;;;2.60;;
8104;SDS011;4095;48.942;9.104;2022-11-20T16:49:51;4.17;;;2.57;;
8104;SDS011;4095;48.942;9.104;2022-11-20T16:52:17;3.97;;;2.30;;
8104;SDS011;4095;48.942;9.104;2022-11-20T16:54:42;2.93;;;2.10;;
8104;SDS011;4095;48.942;9.104;2022-11-20T16:57:08;3.37;;;2.40;;
8104;SDS011;4095;48.942;9.104;2022-11-20T16:59:34;3.13;;;2.10;;
8104;SDS011;4095;48.942;9.104;2022-11-20T17:01:59;4.00;;;2.23;;
8104;SDS011;4095;48.942;9.104;2022-11-20T17:04:25;4.37;;;2.20;;
8104;SDS011;4095;48.942;9.104;2022-11-20T17:06:50;3.63;;;2.40;;
8104;SDS011;4095;48.942;9.104;2022-11-20T17:09:16;4.23;;;2.50;;